Time;durP1;ratioP1;P1;durP2;ratioP2;P2;SDS_P1;SDS_P2;PMS_P1;PMS_P2;Temp;Humidity;BMP_temperature;BMP_pressure;BME280_temperature;BME280_humidity;BME280_pressure;Samples;Min_cycle;Max_cycle;Signal;HPM_P1;HPM_P2
2021/07/29 00:00:59;;;;;;;12.32;4.15;;;16.80;99.90;;;;;;5050177;28;20724;-76
2021/07/29 00:03:26;;;;;;;8.75;2.97;;;16.80;99.90;;;;;;5048956;28;20215;-82
2021/07/29 00:05:52;;;;;;;14.65;3.22;;;16.90;99.90;;;;;;5048186;28;20218;-82
2021/07/29 00:08:20;;;;;;;8.88;3.00;;;16.90;99.90;;;;;;5048916;28;20213;-77
2021/07/29 00:10:48;;;;;;;8.73;2.63;;;16.90;99.90;;;;;;5047703;28;20538;-81
2021/07/29 00:13:15;;;;;;;8.93;2.25;;;16.90;99.90;;;;;;5048512;28;20213;-81
2021/07/29 00:15:43;;;;;;;12.10;3.70;;;16.90;99.90;;;;;;5052690;28;20224;-82
2021/07/29 00:20:55;;;;;;;11.48;3.28;;;16.90;99.90;;;;;;5047580;28;20201;-80
2021/07/29 00:23:22;;;;;;;8.57;2.33;;;17.00;99.90;;;;;;5048579;28;20206;-83
2021/07/29 00:25:49;;;;;;;10.98;3.00;;;17.00;99.90;;;;;;5047446;28;20232;-79
2021/07/29 00:28:16;;;;;;;8.45;2.30;;;17.00;99.90;;;;;;5048406;28;20194;-81
2021/07/29 00:30:42;;;;;;;9.85;2.90;;;17.10;99.90;;;;;;5046139;28;20213;-82
2021/07/29 00:33:10;;;;;;;11.40;3.10;;;17.10;99.90;;;;;;5048566;28;20590;-85
2021/07/29 00:35:37;;;;;;;12.90;3.20;;;17.00;99.90;;;;;;5048226;28;20205;-81
2021/07/29 00:38:04;;;;;;;9.88;1.98;;;17.10;99.90;;;;;;5050415;28;20198;-82
2021/07/29 00:40:31;;;;;;;7.60;2.13;;;17.10;99.90;;;;;;5068794;28;20213;-79
2021/07/29 00:42:59;;;;;;;12.50;2.20;;;16.90;99.90;;;;;;5070730;28;20228;-80
2021/07/29 00:45:26;;;;;;;12.40;2.63;;;16.80;99.90;;;;;;5065062;28;20253;-81
2021/07/29 00:47:54;;;;;;;12.68;3.30;;;16.60;99.90;;;;;;5047941;28;20241;-80
2021/07/29 00:50:23;;;;;;;17.42;3.50;;;16.50;99.90;;;;;;5047422;28;20629;-82
2021/07/29 00:52:50;;;;;;;13.18;3.45;;;16.30;99.90;;;;;;5048680;28;20205;-89
2021/07/29 00:55:20;;;;;;;14.87;4.07;;;16.10;99.90;;;;;;5049413;28;20272;-84
2021/07/29 00:57:47;;;;;;;12.27;3.47;;;15.80;99.90;;;;;;5048313;28;20233;-82
2021/07/29 01:00:14;;;;;;;17.70;4.30;;;15.60;99.90;;;;;;5048843;28;20209;-86
2021/07/29 01:02:41;;;;;;;13.47;3.70;;;15.40;99.90;;;;;;5053391;28;20484;-86
2021/07/29 01:05:10;;;;;;;16.47;4.07;;;15.30;99.90;;;;;;5068151;28;20229;-85
2021/07/29 01:07:38;;;;;;;16.43;4.07;;;15.20;99.90;;;;;;5054348;28;20495;-82
2021/07/29 01:10:06;;;;;;;8.83;3.00;;;15.10;99.90;;;;;;5047926;28;20209;-82
2021/07/29 01:12:34;;;;;;;10.77;2.43;;;15.10;99.90;;;;;;5047617;28;20198;-81
2021/07/29 01:15:00;;;;;;;11.83;2.10;;;15.00;99.90;;;;;;5048029;28;20636;-81
2021/07/29 01:17:30;;;;;;;8.00;2.90;;;14.90;99.90;;;;;;5048518;28;20201;-82
2021/07/29 01:19:58;;;;;;;13.30;2.70;;;14.90;99.90;;;;;;5048278;28;20208;-82
2021/07/29 01:22:34;;;;;;;12.17;2.57;;;14.90;99.90;;;;;;5046449;28;20237;-81
2021/07/29 01:25:01;;;;;;;7.57;2.30;;;14.90;99.90;;;;;;5046176;28;20249;-82
2021/07/29 01:27:31;;;;;;;10.30;2.70;;;14.90;99.90;;;;;;5047324;28;20201;-81
2021/07/29 01:29:59;;;;;;;8.93;3.23;;;14.90;99.90;;;;;;5047254;28;20210;-79
2021/07/29 01:32:26;;;;;;;11.83;3.17;;;14.90;99.90;;;;;;5047279;28;20290;-82
2021/07/29 01:34:53;;;;;;;10.83;3.13;;;14.90;99.90;;;;;;5046529;28;20244;-80
2021/07/29 01:37:20;;;;;;;8.93;2.30;;;15.00;99.90;;;;;;5044930;28;20202;-81
2021/07/29 01:39:48;;;;;;;9.43;2.90;;;15.00;99.90;;;;;;5066132;28;20217;-79
2021/07/29 01:42:15;;;;;;;10.73;3.50;;;15.00;99.90;;;;;;5063650;28;20200;-78
2021/07/29 01:44:42;;;;;;;10.87;3.40;;;15.10;99.90;;;;;;5045456;28;20680;-82
2021/07/29 01:47:08;;;;;;;11.37;2.17;;;15.20;99.90;;;;;;5047132;28;20578;-80
2021/07/29 01:49:36;;;;;;;6.17;1.93;;;15.20;99.90;;;;;;5045753;28;20213;-82
2021/07/29 01:52:03;;;;;;;8.07;2.27;;;15.30;99.90;;;;;;5046679;28;20198;-79
2021/07/29 01:54:30;;;;;;;7.00;2.30;;;15.30;99.90;;;;;;5060569;28;20244;-79
2021/07/29 01:56:58;;;;;;;8.53;2.57;;;15.40;99.90;;;;;;5066448;28;20197;-82
2021/07/29 01:59:25;;;;;;;10.77;3.20;;;15.30;99.90;;;;;;5066807;28;20208;-79
2021/07/29 02:01:51;;;;;;;11.90;4.47;;;15.30;99.90;;;;;;5065450;28;20604;-79
2021/07/29 02:04:18;;;;;;;9.87;3.67;;;15.40;99.90;;;;;;5066649;28;20201;-79
2021/07/29 02:06:45;;;;;;;11.50;4.20;;;15.40;99.90;;;;;;5064594;28;20623;-81
2021/07/29 02:09:12;;;;;;;12.13;3.67;;;15.40;99.90;;;;;;5066124;28;20205;-79
2021/07/29 02:11:38;;;;;;;7.70;2.83;;;15.40;99.90;;;;;;5066866;28;20396;-79
2021/07/29 02:14:07;;;;;;;7.73;2.97;;;15.40;99.90;;;;;;5062827;28;20221;-79
2021/07/29 02:16:34;;;;;;;9.77;2.93;;;15.40;99.90;;;;;;5045057;28;20222;-81
2021/07/29 02:19:01;;;;;;;9.10;3.43;;;15.40;99.90;;;;;;5047332;28;20214;-81
2021/07/29 02:21:28;;;;;;;10.30;2.97;;;15.40;99.90;;;;;;5046669;28;20202;-84
2021/07/29 02:23:55;;;;;;;10.07;2.87;;;15.40;99.90;;;;;;5045280;28;20621;-80
2021/07/29 02:26:21;;;;;;;8.50;3.40;;;15.40;99.90;;;;;;5047419;28;20229;-82
2021/07/29 02:28:48;;;;;;;9.07;2.60;;;15.40;99.90;;;;;;5047735;28;20206;-84
2021/07/29 02:31:17;;;;;;;8.17;2.77;;;15.40;99.90;;;;;;5048754;28;20216;-80
2021/07/29 02:33:43;;;;;;;9.53;2.50;;;15.50;99.90;;;;;;5049047;28;20213;-79
2021/07/29 02:36:11;;;;;;;9.40;2.50;;;15.40;99.90;;;;;;5073888;28;20514;-79
2021/07/29 02:38:37;;;;;;;8.07;2.60;;;15.40;99.90;;;;;;5075436;28;20254;-81
2021/07/29 02:41:04;;;;;;;10.13;2.73;;;15.40;99.90;;;;;;5076392;28;20216;-79
2021/07/29 02:43:31;;;;;;;7.80;2.33;;;15.40;99.90;;;;;;5052983;28;20233;-81
2021/07/29 02:45:58;;;;;;;9.00;2.80;;;15.40;99.90;;;;;;5049237;28;20222;-83
2021/07/29 02:48:26;;;;;;;9.50;2.80;;;15.50;99.90;;;;;;5048078;28;20201;-80
2021/07/29 02:50:54;;;;;;;6.80;2.70;;;15.50;99.90;;;;;;5053595;28;20220;-80
2021/07/29 02:53:21;;;;;;;10.73;2.83;;;15.40;99.90;;;;;;5064422;28;20620;-79
2021/07/29 02:55:48;;;;;;;9.90;3.10;;;15.50;99.90;;;;;;5050079;28;20224;-80
2021/07/29 02:58:15;;;;;;;11.50;3.00;;;15.40;99.90;;;;;;5044630;28;20200;-79
2021/07/29 03:00:42;;;;;;;9.23;3.37;;;15.50;99.90;;;;;;5044102;28;20509;-80
2021/07/29 03:03:09;;;;;;;8.43;2.63;;;15.50;99.90;;;;;;5047766;28;20193;-79
2021/07/29 03:05:37;;;;;;;9.63;2.87;;;15.50;99.90;;;;;;5064638;28;20229;-80
2021/07/29 03:08:04;;;;;;;8.80;2.70;;;15.50;99.90;;;;;;5067314;28;20209;-80
2021/07/29 03:10:31;;;;;;;8.90;2.50;;;15.60;99.90;;;;;;5067125;28;20212;-81
2021/07/29 03:13:01;;;;;;;7.17;2.50;;;15.60;99.90;;;;;;5066989;28;20201;-81
2021/07/29 03:15:29;;;;;;;10.90;2.47;;;15.60;99.90;;;;;;5066618;28;20225;-78
2021/07/29 03:17:56;;;;;;;6.63;2.03;;;15.60;99.90;;;;;;5066769;28;20205;-80
2021/07/29 03:20:23;;;;;;;5.43;1.70;;;15.60;99.90;;;;;;5066022;28;20201;-82
2021/07/29 03:22:51;;;;;;;9.43;2.23;;;15.60;99.90;;;;;;5046299;28;20210;-81
2021/07/29 03:25:18;;;;;;;5.67;2.60;;;15.60;99.90;;;;;;5046533;28;20210;-83
2021/07/29 03:27:44;;;;;;;5.50;1.90;;;15.60;99.90;;;;;;5045569;28;20202;-80
2021/07/29 03:30:12;;;;;;;7.63;2.40;;;15.60;99.90;;;;;;5046481;28;20213;-77
2021/07/29 03:32:39;;;;;;;10.70;2.80;;;15.60;99.90;;;;;;5045917;28;20205;-80
2021/07/29 03:35:06;;;;;;;8.67;2.80;;;15.70;99.90;;;;;;5046177;28;20852;-79
2021/07/29 03:37:33;;;;;;;7.83;2.90;;;15.70;99.90;;;;;;5049095;22;20231;-78
2021/07/29 03:40:05;;;;;;;6.60;2.50;;;15.70;99.90;;;;;;5025967;28;20191;-82
2021/07/29 03:42:32;;;;;;;7.97;2.77;;;15.70;99.90;;;;;;5024694;28;20905;-78
2021/07/29 03:44:59;;;;;;;7.00;2.23;;;15.70;99.90;;;;;;5026315;28;20214;-82
2021/07/29 03:47:26;;;;;;;5.70;2.10;;;15.70;99.90;;;;;;5026271;28;20231;-78
2021/07/29 03:49:53;;;;;;;9.37;2.90;;;15.80;99.90;;;;;;5025902;28;20245;-84
2021/07/29 03:52:20;;;;;;;6.50;2.37;;;15.70;99.90;;;;;;5037838;28;20276;-81
2021/07/29 03:54:49;;;;;;;13.50;3.03;;;15.80;99.90;;;;;;5039709;28;20206;-81
2021/07/29 03:57:17;;;;;;;10.30;3.13;;;15.70;99.90;;;;;;5026502;28;20198;-84
2021/07/29 03:59:44;;;;;;;8.73;3.07;;;15.70;99.90;;;;;;5027211;28;20213;-84
2021/07/29 04:02:10;;;;;;;8.23;2.17;;;15.80;99.90;;;;;;5029130;28;20211;-80
2021/07/29 04:04:38;;;;;;;9.63;2.40;;;15.80;99.90;;;;;;5028060;28;20225;-81
2021/07/29 04:07:06;;;;;;;6.37;2.00;;;15.80;99.90;;;;;;5030225;28;20261;-81
2021/07/29 04:09:33;;;;;;;7.30;1.90;;;15.80;99.90;;;;;;5029917;28;20202;-81
2021/07/29 04:12:00;;;;;;;7.57;2.77;;;15.80;99.90;;;;;;5030444;28;20249;-84
2021/07/29 04:14:29;;;;;;;8.00;3.37;;;15.80;99.90;;;;;;5029843;28;20206;-85
2021/07/29 04:16:56;;;;;;;11.90;2.60;;;15.80;99.90;;;;;;5030346;28;20222;-83
2021/07/29 04:19:23;;;;;;;7.13;2.40;;;15.80;99.90;;;;;;5030273;28;20211;-81
2021/07/29 04:21:50;;;;;;;12.40;3.20;;;15.70;99.90;;;;;;5028966;28;20217;-82
2021/07/29 04:24:18;;;;;;;11.68;2.70;;;15.80;99.90;;;;;;5032583;28;20211;-79
2021/07/29 04:26:45;;;;;;;7.00;2.30;;;15.90;99.90;;;;;;5038330;28;20272;-81
2021/07/29 04:29:12;;;;;;;9.13;2.30;;;15.80;99.90;;;;;;5051577;28;20202;-84
2021/07/29 04:31:40;;;;;;;8.60;2.63;;;15.90;99.90;;;;;;5038234;28;20210;-83
2021/07/29 04:34:07;;;;;;;6.97;2.57;;;15.90;99.90;;;;;;5030878;28;20499;-84
2021/07/29 04:36:39;;;;;;;12.73;2.90;;;15.90;99.90;;;;;;5029162;28;20677;-82
2021/07/29 04:39:06;;;;;;;6.23;2.17;;;15.80;99.90;;;;;;5029892;28;20198;-84
2021/07/29 04:41:33;;;;;;;9.87;2.60;;;15.80;99.90;;;;;;5028350;28;20237;-79
2021/07/29 04:44:00;;;;;;;8.20;2.30;;;15.90;99.90;;;;;;5028227;28;20207;-78
2021/07/29 04:46:27;;;;;;;10.33;2.87;;;15.90;99.90;;;;;;5029730;28;20385;-79
2021/07/29 04:48:55;;;;;;;9.80;2.40;;;16.00;99.90;;;;;;5030029;28;20908;-81
2021/07/29 04:51:22;;;;;;;9.30;2.60;;;16.00;99.90;;;;;;5028243;28;20198;-83
2021/07/29 04:53:49;;;;;;;6.30;2.22;;;15.90;99.90;;;;;;5028745;28;20213;-74
2021/07/29 04:56:16;;;;;;;7.63;2.30;;;16.00;99.90;;;;;;5029128;28;20224;-78
2021/07/29 04:58:42;;;;;;;10.97;3.33;;;15.90;99.90;;;;;;5027448;28;20334;-76
2021/07/29 05:01:09;;;;;;;8.53;2.70;;;15.90;99.90;;;;;;5029011;28;20203;-82
2021/07/29 05:03:36;;;;;;;11.47;3.90;;;15.90;99.90;;;;;;5027253;28;20261;-81
2021/07/29 05:06:04;;;;;;;11.73;2.67;;;16.00;99.90;;;;;;5027454;28;20207;-77
2021/07/29 05:08:31;;;;;;;8.98;2.80;;;16.00;99.90;;;;;;5028100;28;20225;-84
2021/07/29 05:10:58;;;;;;;11.17;3.07;;;16.10;99.90;;;;;;5029351;28;20222;-83
2021/07/29 05:13:25;;;;;;;12.47;3.23;;;16.10;99.90;;;;;;5027622;28;20213;-79
2021/07/29 05:15:52;;;;;;;10.02;2.47;;;16.10;99.90;;;;;;5027216;28;20225;-83
2021/07/29 05:18:19;;;;;;;9.67;2.90;;;16.20;99.90;;;;;;5027226;28;20218;-82
2021/07/29 05:20:45;;;;;;;8.80;3.07;;;16.20;99.90;;;;;;5027153;28;20911;-83
2021/07/29 05:23:13;;;;;;;11.23;2.70;;;16.20;99.90;;;;;;5026907;28;20839;-77
2021/07/29 05:25:40;;;;;;;11.03;2.67;;;16.30;99.90;;;;;;5026400;28;20215;-78
2021/07/29 05:28:07;;;;;;;10.55;2.92;;;16.30;99.90;;;;;;5026175;28;20649;-84
2021/07/29 05:30:36;;;;;;;8.17;2.27;;;16.40;99.90;;;;;;5026010;28;20210;-80
2021/07/29 05:33:04;;;;;;;9.43;2.67;;;16.40;99.90;;;;;;5025929;28;20207;-81
2021/07/29 05:35:31;;;;;;;5.63;2.58;;;16.40;99.90;;;;;;5026095;28;20284;-76
2021/07/29 05:37:58;;;;;;;9.98;3.08;;;16.50;99.90;;;;;;5028696;28;20242;-77
2021/07/29 05:40:26;;;;;;;10.77;2.85;;;16.70;99.90;;;;;;5036551;28;20207;-76
2021/07/29 05:42:53;;;;;;;6.70;2.87;;;16.70;99.90;;;;;;5027987;28;20625;-77
2021/07/29 05:45:20;;;;;;;10.70;3.33;;;16.70;99.90;;;;;;5032780;28;20537;-77
2021/07/29 05:47:46;;;;;;;12.88;3.50;;;16.80;99.90;;;;;;5040654;28;20724;-81
2021/07/29 05:50:13;;;;;;;9.77;3.28;;;16.70;99.90;;;;;;5049182;28;20198;-79
2021/07/29 05:52:42;;;;;;;11.50;3.70;;;16.70;99.90;;;;;;5046194;28;20216;-80
2021/07/29 05:55:10;;;;;;;12.93;3.07;;;16.70;99.90;;;;;;5046291;28;20206;-83
2021/07/29 05:57:38;;;;;;;10.02;2.75;;;16.70;99.90;;;;;;5027356;28;20662;-81
2021/07/29 06:00:06;;;;;;;13.83;2.60;;;16.70;99.90;;;;;;5027256;28;20187;-83
2021/07/29 06:02:32;;;;;;;6.33;2.50;;;16.60;99.90;;;;;;5026908;28;20198;-78
2021/07/29 06:04:59;;;;;;;11.20;2.87;;;16.80;99.90;;;;;;5027569;28;20206;-80
2021/07/29 06:07:26;;;;;;;14.50;3.47;;;17.10;99.90;;;;;;5038472;28;20229;-83
2021/07/29 06:09:53;;;;;;;12.60;3.90;;;17.20;99.90;;;;;;5046631;28;20211;-77
2021/07/29 06:12:24;;;;;;;11.33;2.90;;;17.40;99.90;;;;;;5028542;28;20219;-81
2021/07/29 06:14:53;;;;;;;11.57;3.03;;;17.40;99.90;;;;;;5025348;28;20264;-81
2021/07/29 06:17:23;;;;;;;12.50;3.67;;;17.30;99.90;;;;;;5025549;28;20199;-81
2021/07/29 06:19:50;;;;;;;13.00;3.90;;;17.40;99.90;;;;;;5024040;28;20524;-80
2021/07/29 06:22:16;;;;;;;10.05;2.67;;;17.70;99.90;;;;;;5032537;28;20236;-83
2021/07/29 06:24:43;;;;;;;11.07;3.03;;;18.00;99.90;;;;;;5044932;28;20213;-81
2021/07/29 06:27:10;;;;;;;7.20;2.90;;;18.30;99.90;;;;;;5045404;28;20892;-78
2021/07/29 06:29:37;;;;;;;8.15;3.08;;;18.40;99.90;;;;;;5032219;28;20210;-85
2021/07/29 06:32:06;;;;;;;10.35;2.80;;;18.60;99.90;;;;;;5026241;28;20210;-80
2021/07/29 06:34:36;;;;;;;9.88;3.35;;;18.90;99.90;;;;;;5025970;28;20206;-81
2021/07/29 06:37:03;;;;;;;11.18;2.78;;;19.20;99.90;;;;;;5026042;28;20242;-82
2021/07/29 06:39:30;;;;;;;6.95;2.40;;;19.40;99.90;;;;;;5025731;28;20276;-82
2021/07/29 06:41:57;;;;;;;13.23;3.40;;;19.60;99.90;;;;;;5025782;28;20210;-84
2021/07/29 06:44:24;;;;;;;11.18;3.22;;;19.80;99.90;;;;;;5044731;28;20218;-82
2021/07/29 06:46:50;;;;;;;11.95;3.13;;;19.90;99.90;;;;;;5045329;28;20222;-79
2021/07/29 06:49:19;;;;;;;10.15;2.60;;;20.10;99.90;;;;;;5027568;28;20202;-83
2021/07/29 06:51:45;;;;;;;10.55;2.80;;;20.40;99.90;;;;;;5026293;28;20213;-81
2021/07/29 06:54:12;;;;;;;6.28;2.30;;;20.60;99.90;;;;;;5025608;28;20213;-80
2021/07/29 06:56:39;;;;;;;7.38;3.35;;;20.70;99.90;;;;;;5042901;28;20800;-82
2021/07/29 06:59:05;;;;;;;12.10;4.05;;;20.70;99.90;;;;;;5059837;28;20194;-82
2021/07/29 07:01:34;;;;;;;13.50;3.45;;;20.70;99.90;;;;;;5046023;28;20210;-84
2021/07/29 07:04:25;;;;;;;15.00;3.53;;;20.40;99.90;;;;;;4995425;28;20357;-81
2021/07/29 07:06:52;;;;;;;10.82;3.05;;;20.70;99.90;;;;;;5029809;28;20336;-83
2021/07/29 07:09:19;;;;;;;8.55;2.97;;;20.90;99.90;;;;;;5045540;28;20297;-81
2021/07/29 07:11:46;;;;;;;11.73;3.13;;;21.20;99.90;;;;;;5030798;28;20199;-80
2021/07/29 07:14:12;;;;;;;11.55;3.67;;;21.50;99.90;;;;;;5037540;28;20590;-82
2021/07/29 07:16:39;;;;;;;13.80;3.58;;;21.40;99.90;;;;;;5025955;28;20223;-81
2021/07/29 07:19:07;;;;;;;13.75;4.00;;;21.10;99.90;;;;;;5025970;28;20374;-81
2021/07/29 07:21:35;;;;;;;21.38;4.70;;;20.80;99.90;;;;;;5025194;28;20202;-79
2021/07/29 07:24:08;;;;;;;10.50;3.38;;;20.60;99.90;;;;;;5005692;28;20198;-77
2021/07/29 07:26:34;;;;;;;9.38;3.47;;;20.90;99.90;;;;;;5042954;28;20213;-82
2021/07/29 07:29:03;;;;;;;8.15;3.25;;;21.20;99.90;;;;;;5044828;28;20194;-83
2021/07/29 07:31:29;;;;;;;9.60;2.80;;;21.50;99.90;;;;;;5034824;28;20788;-83
2021/07/29 07:33:57;;;;;;;8.70;2.92;;;21.90;99.90;;;;;;5028893;28;20213;-85
2021/07/29 07:36:24;;;;;;;12.40;2.92;;;21.90;99.90;;;;;;5031562;28;20203;-84
2021/07/29 07:38:52;;;;;;;7.78;2.30;;;21.90;99.90;;;;;;5030513;28;20238;-83
2021/07/29 07:41:19;;;;;;;14.40;5.07;;;21.70;99.90;;;;;;5031625;28;20492;-83
2021/07/29 07:43:46;;;;;;;21.08;6.57;;;21.70;99.90;;;;;;5032015;28;20202;-82
2021/07/29 07:46:13;;;;;;;12.73;3.67;;;21.50;99.90;;;;;;5030539;28;20205;-84
2021/07/29 07:48:40;;;;;;;10.85;3.80;;;21.40;99.90;;;;;;5030509;28;20234;-84
2021/07/29 07:51:07;;;;;;;11.45;3.95;;;21.30;99.90;;;;;;5031266;28;20205;-84
2021/07/29 07:53:34;;;;;;;15.30;4.93;;;21.40;99.90;;;;;;5028794;28;20214;-83
2021/07/29 07:56:05;;;;;;;17.30;5.05;;;21.00;99.90;;;;;;5046517;28;20209;-81
2021/07/29 07:58:32;;;;;;;14.18;3.95;;;21.20;99.90;;;;;;5051183;28;20468;-76
2021/07/29 08:00:59;;;;;;;12.55;3.20;;;21.50;99.90;;;;;;5051660;28;20206;-83
2021/07/29 08:03:25;;;;;;;8.32;3.17;;;21.80;99.90;;;;;;5041571;28;20198;-83
2021/07/29 08:05:52;;;;;;;13.52;4.20;;;21.70;99.90;;;;;;5030417;28;20205;-83
2021/07/29 08:08:19;;;;;;;12.98;2.97;;;21.60;99.90;;;;;;5029034;28;20222;-81
2021/07/29 08:10:50;;;;;;;13.10;3.90;;;21.80;99.90;;;;;;5029714;28;20210;-82
2021/07/29 08:13:18;;;;;;;9.38;3.72;;;22.10;99.90;;;;;;5045402;28;20210;-82
2021/07/29 08:15:45;;;;;;;15.65;4.32;;;22.20;99.90;;;;;;5047582;28;20230;-82
2021/07/29 08:18:12;;;;;;;10.82;2.95;;;22.20;99.90;;;;;;5067472;28;20193;-82
2021/07/29 08:20:41;;;;;;;7.32;2.60;;;22.10;99.90;;;;;;5053153;28;20255;-81
2021/07/29 08:23:08;;;;;;;8.68;3.00;;;21.80;99.90;;;;;;5051040;28;20541;-81
2021/07/29 08:25:35;;;;;;;9.35;2.90;;;21.50;99.90;;;;;;5037010;28;20245;-84
2021/07/29 08:28:02;;;;;;;6.97;2.80;;;21.80;99.90;;;;;;5029738;28;20233;-82
2021/07/29 08:30:31;;;;;;;9.80;3.05;;;21.90;99.90;;;;;;5027940;28;20213;-82
2021/07/29 08:32:58;;;;;;;5.47;2.25;;;22.00;99.90;;;;;;5027726;28;20297;-78
2021/07/29 08:35:25;;;;;;;9.93;3.20;;;21.80;99.90;;;;;;5027059;28;20378;-80
2021/07/29 08:37:52;;;;;;;10.50;3.15;;;22.00;99.90;;;;;;5026377;28;20277;-79
2021/07/29 08:40:20;;;;;;;9.90;3.95;;;22.10;99.90;;;;;;5027667;28;20214;-80
2021/07/29 08:42:47;;;;;;;8.13;2.85;;;21.70;99.90;;;;;;5027266;28;20197;-83
2021/07/29 08:45:14;;;;;;;12.73;3.53;;;21.40;99.90;;;;;;5027425;28;20619;-80
2021/07/29 08:47:44;;;;;;;12.65;4.22;;;21.50;99.90;;;;;;5027479;28;20233;-82
2021/07/29 08:50:12;;;;;;;11.00;4.15;;;21.60;99.90;;;;;;5057642;28;20626;-81
2021/07/29 08:52:39;;;;;;;11.18;3.90;;;21.70;99.90;;;;;;5034727;28;20289;-80
2021/07/29 08:55:07;;;;;;;15.50;4.75;;;21.60;99.90;;;;;;5028816;28;20210;-82
2021/07/29 08:57:37;;;;;;;15.48;4.53;;;21.20;99.90;;;;;;5028216;28;20203;-82
2021/07/29 09:00:08;;;;;;;10.90;3.63;;;21.50;99.90;;;;;;5045192;28;20252;-83
2021/07/29 09:02:34;;;;;;;15.02;4.03;;;21.80;99.90;;;;;;5037566;28;20599;-82
2021/07/29 09:05:11;;;;;;;9.20;2.90;;;22.10;99.90;;;;;;5028169;28;20584;-82
2021/07/29 09:07:38;;;;;;;9.35;3.33;;;22.10;99.90;;;;;;5027621;28;20234;-82
2021/07/29 09:10:20;;;;;;;10.43;3.35;;;21.90;99.90;;;;;;5027796;28;20202;-76
2021/07/29 09:12:47;;;;;;;14.50;4.28;;;21.60;99.90;;;;;;5026875;28;20206;-77
2021/07/29 09:15:20;;;;;;;10.73;3.65;;;21.30;99.90;;;;;;5026930;28;20981;-79
2021/07/29 09:17:47;;;;;;;12.70;3.90;;;21.00;99.90;;;;;;5028317;28;20241;-83
2021/07/29 09:20:20;;;;;;;6.70;2.78;;;21.00;99.90;;;;;;5027491;28;20202;-82
2021/07/29 09:22:49;;;;;;;9.73;3.45;;;21.50;99.90;;;;;;5025930;28;20207;-76
2021/07/29 09:25:19;;;;;;;9.55;3.17;;;21.80;99.90;;;;;;5024555;28;20268;-77
2021/07/29 09:27:49;;;;;;;11.20;4.05;;;21.90;99.90;;;;;;5025296;28;20345;-78
2021/07/29 09:30:18;;;;;;;11.88;3.58;;;22.10;99.90;;;;;;5025424;28;20202;-79
2021/07/29 09:32:57;;;;;;;11.48;4.30;;;22.10;99.90;;;;;;5023898;28;20198;-78
2021/07/29 09:35:43;;;;;;;15.93;4.47;;;22.10;99.90;;;;;;5025026;28;20216;-77
2021/07/29 09:38:19;;;;;;;11.25;3.38;;;22.50;99.90;;;;;;5037335;28;20289;-83
2021/07/29 09:40:48;;;;;;;11.80;3.85;;;22.70;99.90;;;;;;5027932;28;20217;-85
2021/07/29 09:43:16;;;;;;;10.05;3.13;;;22.70;99.90;;;;;;5027541;28;20198;-82
2021/07/29 09:45:45;;;;;;;12.48;4.20;;;22.40;99.90;;;;;;5026311;28;20916;-83
2021/07/29 09:48:12;;;;;;;10.45;3.70;;;22.40;99.90;;;;;;5026307;28;20627;-81
2021/07/29 09:50:42;;;;;;;13.68;3.90;;;22.30;99.90;;;;;;5027321;28;20210;-81
2021/07/29 09:53:10;;;;;;;9.95;3.78;;;22.50;99.90;;;;;;5026178;28;20199;-83
2021/07/29 09:55:37;;;;;;;9.50;3.20;;;22.70;99.90;;;;;;5025696;28;20206;-83
2021/07/29 09:58:05;;;;;;;8.63;3.25;;;22.50;99.90;;;;;;5024949;28;20211;-80
2021/07/29 10:00:35;;;;;;;9.88;3.40;;;22.40;99.90;;;;;;5025486;28;20271;-84
2021/07/29 10:03:04;;;;;;;9.60;2.95;;;22.50;99.90;;;;;;5026228;28;20254;-83
2021/07/29 10:05:39;;;;;;;10.20;3.08;;;22.90;99.90;;;;;;5026059;28;20214;-77
2021/07/29 10:08:12;;;;;;;8.82;3.40;;;23.10;99.90;;;;;;5041321;28;20221;-78
2021/07/29 10:10:39;;;;;;;10.05;3.60;;;23.20;99.90;;;;;;5047518;28;20586;-85
2021/07/29 10:13:06;;;;;;;9.75;3.28;;;23.30;99.90;;;;;;5046970;28;20212;-86
2021/07/29 10:15:41;;;;;;;5.60;2.53;;;23.60;99.90;;;;;;5045982;28;20226;-80
2021/07/29 10:18:09;;;;;;;10.93;3.40;;;23.90;99.90;;;;;;5046599;28;20263;-83
2021/07/29 10:20:37;;;;;;;8.77;3.03;;;23.90;99.90;;;;;;5043911;28;20857;-82
2021/07/29 10:23:32;;;;;;;11.23;3.92;;;23.70;99.90;;;;;;5028732;28;20210;-81
2021/07/29 10:26:06;;;;;;;10.35;3.20;;;23.60;99.90;;;;;;5012068;28;20203;-83
2021/07/29 10:28:38;;;;;;;9.95;3.80;;;23.30;99.90;;;;;;5024736;28;20257;-82
2021/07/29 10:31:05;;;;;;;8.98;3.40;;;23.30;99.90;;;;;;5024649;28;20198;-83
2021/07/29 10:33:32;;;;;;;16.73;4.40;;;23.40;99.90;;;;;;5035857;28;20213;-82
2021/07/29 10:36:01;;;;;;;12.48;4.00;;;23.20;99.90;;;;;;5043389;28;20202;-78
2021/07/29 10:38:52;;;;;;;12.80;4.13;;;22.90;99.90;;;;;;5024125;28;20242;-84
2021/07/29 10:41:43;;;;;;;12.77;3.72;;;23.20;99.90;;;;;;5024620;28;20222;-78
2021/07/29 10:44:34;;;;;;;8.32;2.55;;;23.30;99.90;;;;;;5024440;28;20205;-81
2021/07/29 10:47:02;;;;;;;8.00;3.28;;;23.30;99.90;;;;;;5024266;28;20211;-82
2021/07/29 10:50:17;;;;;;;8.48;3.00;;;23.60;99.90;;;;;;5023533;28;20226;-80
2021/07/29 10:52:54;;;;;;;6.55;2.35;;;23.80;99.90;;;;;;5025375;28;20884;-80
2021/07/29 10:55:23;;;;;;;12.88;3.28;;;23.90;99.90;;;;;;5026584;28;20202;-83
2021/07/29 10:58:01;;;;;;;11.07;3.15;;;24.10;99.90;;;;;;5025988;28;20209;-79
2021/07/29 11:00:28;;;;;;;7.63;2.60;;;24.20;99.90;;;;;;5025555;28;20207;-79
2021/07/29 11:02:56;;;;;;;8.85;2.78;;;24.40;99.90;;;;;;5042859;28;20202;-83
2021/07/29 11:05:30;;;;;;;5.82;2.28;;;24.50;99.90;;;;;;5044742;28;20201;-81
2021/07/29 11:07:57;;;;;;;9.32;3.38;;;24.50;99.90;;;;;;5045050;28;20290;-77
2021/07/29 11:10:28;;;;;;;6.88;2.78;;;24.40;99.90;;;;;;5030350;28;20214;-79
2021/07/29 11:12:55;;;;;;;11.02;3.10;;;24.00;99.90;;;;;;5029353;28;20213;-84
2021/07/29 11:15:22;;;;;;;12.90;3.33;;;23.90;99.90;;;;;;5029929;28;20233;-82
2021/07/29 11:17:49;;;;;;;13.50;3.20;;;24.00;99.90;;;;;;5036098;28;20214;-81
2021/07/29 11:20:26;;;;;;;9.25;3.10;;;24.00;99.90;;;;;;5049688;28;20197;-81
2021/07/29 11:22:53;;;;;;;8.20;2.90;;;24.00;99.90;;;;;;5049130;28;20189;-80
2021/07/29 11:25:20;;;;;;;10.88;3.40;;;24.30;99.90;;;;;;5047489;28;20914;-79
2021/07/29 11:27:48;;;;;;;10.90;4.03;;;24.20;99.90;;;;;;5029007;28;20309;-81
2021/07/29 11:30:15;;;;;;;12.77;3.50;;;24.20;99.90;;;;;;5029033;28;20210;-82
2021/07/29 11:32:43;;;;;;;10.43;3.45;;;24.30;99.90;;;;;;5028597;28;20194;-83
2021/07/29 11:35:14;;;;;;;8.25;2.85;;;24.40;99.90;;;;;;5030699;28;20206;-82
2021/07/29 11:37:43;;;;;;;7.95;2.90;;;24.50;99.90;;;;;;5028442;28;20234;-80
2021/07/29 11:40:18;;;;;;;13.60;3.45;;;24.70;99.90;;;;;;5027867;28;20198;-81
2021/07/29 11:42:45;;;;;;;9.18;2.40;;;24.70;99.90;;;;;;5028349;28;20217;-80
2021/07/29 11:45:24;;;;;;;8.95;2.92;;;24.80;99.90;;;;;;5036015;28;20203;-81
2021/07/29 11:47:52;;;;;;;12.15;3.50;;;24.70;99.90;;;;;;5027465;28;20210;-83
2021/07/29 11:50:33;;;;;;;10.15;3.92;;;24.30;99.90;;;;;;5027947;28;20217;-78
2021/07/29 11:53:00;;;;;;;10.38;3.75;;;23.80;99.90;;;;;;5028506;28;20205;-82
2021/07/29 11:55:27;;;;;;;8.15;3.25;;;23.70;99.90;;;;;;5028395;28;20206;-80
2021/07/29 11:57:54;;;;;;;12.65;3.90;;;23.80;99.90;;;;;;5028551;28;20230;-80
2021/07/29 12:00:29;;;;;;;13.10;3.50;;;24.10;99.90;;;;;;5027851;28;20555;-79
2021/07/29 12:02:57;;;;;;;11.10;3.15;;;23.80;99.90;;;;;;5027616;28;20210;-77
2021/07/29 12:05:25;;;;;;;16.55;3.97;;;23.80;99.90;;;;;;5026483;28;20206;-81
2021/07/29 12:07:54;;;;;;;13.23;2.90;;;24.00;99.90;;;;;;5027102;28;20302;-81
2021/07/29 12:10:24;;;;;;;10.50;2.55;;;24.20;99.90;;;;;;5030169;28;20226;-82
2021/07/29 12:12:51;;;;;;;7.70;2.30;;;24.20;99.90;;;;;;5028943;28;20233;-81
2021/07/29 12:15:19;;;;;;;13.77;3.58;;;24.30;99.90;;;;;;5028681;28;20225;-81
2021/07/29 12:17:47;;;;;;;13.70;3.65;;;24.40;99.90;;;;;;5028727;28;20506;-78
2021/07/29 12:20:15;;;;;;;9.50;3.33;;;24.20;99.90;;;;;;5026870;28;20210;-79
2021/07/29 12:22:43;;;;;;;13.05;3.22;;;23.80;99.90;;;;;;5026772;28;20203;-79
2021/07/29 12:25:28;;;;;;;6.57;2.85;;;23.90;99.90;;;;;;5027630;28;20202;-81
2021/07/29 12:27:56;;;;;;;5.03;2.22;;;24.00;99.90;;;;;;5028328;28;20187;-80
2021/07/29 12:30:31;;;;;;;7.60;2.47;;;24.20;99.90;;;;;;5028529;28;20561;-80
2021/07/29 12:33:11;;;;;;;8.18;2.53;;;24.40;99.90;;;;;;5029132;28;20206;-80
2021/07/29 12:35:38;;;;;;;8.85;2.63;;;24.50;99.90;;;;;;5028196;28;20191;-83
2021/07/29 12:38:05;;;;;;;9.15;2.88;;;24.50;99.90;;;;;;5028333;28;20234;-81
2021/07/29 12:40:33;;;;;;;7.97;2.47;;;24.50;99.90;;;;;;5028794;28;20210;-81
2021/07/29 12:43:19;;;;;;;6.00;2.60;;;24.40;99.90;;;;;;5029445;28;20804;-80
2021/07/29 12:45:54;;;;;;;7.72;3.35;;;24.30;99.90;;;;;;5028387;28;20638;-80
2021/07/29 12:48:23;;;;;;;13.52;3.53;;;23.90;99.90;;;;;;5028869;28;20216;-81
2021/07/29 12:50:50;;;;;;;10.45;2.85;;;23.90;99.90;;;;;;5029728;28;20560;-80